ELDO2: Baron Fork, Eldon, OK

                                SHEF ID:       ELDO2     Baron Fork at Eldon, OK
STATION TYPE:

PRECIP STAGE STAGE(2) RIV-FLOW BAT-LOAD
in ft ft cfs volt
Ccp-Rev Ccp-Rev Ccp-Rev Ccp-Rev Ccp-Rev
(America/Chicago)
04/25 00:00 0.00 8.68 ---- 1378 12.63
04/25 01:00 0.00 8.64 ---- 1321 12.61
04/25 02:00 0.00 8.61 ---- 1278 12.60
04/25 03:00 0.00 8.57 ---- 1221 12.58
04/25 04:00 0.00 8.52 ---- 1152 12.55
04/25 05:00 0.00 8.49 ---- 1118 12.53
04/25 06:00 0.00 8.44 ---- 1083 12.52
04/25 07:00 0.00 8.41 ---- 1061 12.50
04/25 08:00 0.00 8.39 ---- 1047 12.53
04/25 09:00 0.00 8.36 ---- 1027 13.03
04/25 10:00 0.00 8.34 ---- 1013 13.49
04/25 11:00 0.00 8.30 ---- 986 13.29
04/25 12:00 0.00 8.28 ---- 972 13.14
04/25 13:00 0.00 8.25 ---- 952 13.06
04/25 14:00 0.00 8.23 ---- 939 13.01
04/25 15:00 0.00 8.20 ---- 919 12.98
04/25 16:00 0.00 8.18 ---- 906 12.94
04/25 17:00 0.00 8.14 ---- 879 12.94
04/25 18:00 0.05 8.14 ---- 879 12.95
04/25 19:00 0.00 8.13 ---- 872 12.84
04/25 20:00 0.02 8.12 ---- 866 12.73
04/25 21:00 0.00 8.10 ---- 853 12.67
04/25 22:00 0.65 8.14 ---- 879 12.64
04/25 23:00 ---- 8.16 ---- 893 12.62
Data processed at Sun 26Apr2026 04:36 GMT

NOTICE: If you are parsing this page

Please convert to using our Data API. Starting early 2026 we will be migrating to: https://water.usace.army.mil with modern pages rendered in JavaScript. When this migration completes you will no longer be able to scrape this page! CWMSDataAPI (CDA)

Timeseries IDs (TSIDs)

TSIDs used from left to right in the data table
ELDN.Precip-Inc.Total.1Hour.1Hour.Ccp-Rev
ELDN.Stage.Inst.1Hour.0.Ccp-Rev
ELDN.Stage-Alt.Inst.1Hour.0.Ccp-Rev
ELDN.Flow.Inst.1Hour.0.Ccp-Rev
ELDN.Volt-Battery Load.Inst.1Hour.0.Ccp-Rev

                            

All information presented herein is the property of the government of the United States of America and may be revised or deleted at any time without prior notice. Dissemination of this information without the expressed written consent of the Public Affairs Office, Tulsa District U.S. Army Corps of Engineers is strictly prohibited. These data are gathered electronically and, as presented, have NOT undergone any form of quality control. These data are NOT guaranteed to be valid or correct.